Tribhuvan International Airport
VNKT : rendu visible

Aérodrome :











RETROUVEZ-NOUS SUR...

 
LOGIN :

S'inscrire | Disclaimer

   EN    FR    IT 

 









Légende :    VFR   VFR Marginal   IFR   IFR Intensif   IFR Très Intensif
Visi : 
Plafond : 
>= 8 km
>= 3000ft
5 à 8 km
1000 à 3000 ft
1500m à 5 km
500 à 1000 ft
800 à 1500m
200 à 500 ft
< 800m
< 200 ft
Symboles :   Orages  Brouillard  Fortes neiges  Fortes précipitations  Vent > 20 kt






- Altitude de l'aérodrome : 4390 ft
- Code IATA : KTM


VNKT - Tribhuvan International

DERNIER METAR :
  • 272150Z VRB02KT 4000 BR FEW015 05/05 Q1015 NOSIG

METARs EXPIRÉS :
  • 272120Z VRB02KT 4000 BR FEW015 06/05 Q1015 NOSIG
  • 272050Z VRB02KT 4000 BR FEW015 06/05 Q1015 NOSIG
  • 272020Z VRB02KT 4500 BR FEW015 06/05 Q1015 NOSIG
  • 271950Z 11003KT 4500 BR FEW015 06/05 Q1015 NOSIG

TAF TAF VNKT
Valide du 27 à 18h jusqu'au 28 à 18h UTC


271700Z 2718/2818 14002KT 5000 BR FEW015
BECMG 2800/2802 VRB02KT 3000 BR FEW010
PROB40 2801/2803 1000 BR
BECMG 2804/2805 12003KT 4000 HZ FEW015 SCT100
BECMG 2807/2808 28008KT 7000 FEW020 SCT100
BECMG 2814/2815 12003KT 5000 BR FEW015 SCT030 BKN100



MET'MAP, la Météo Aéronautique d'un coup d'oeil ! - Copyright ORBIFLY Décembre 2007 - Disclaimer

ORBIFLY MET'MAP TEAM :

Programmation & Développement : Alexandra Zaïnal
Sur une idée originale de : Baudouin d'Aumeries
Assistance à la programmation : Marc-Olivier Méhu
Soutien technique & logistique : Manuel Goepfert

Contact : metmap@orbifly.com




SOURCES & CREDITS :

   NOAA       Earth
Advisory